Time;durP1;ratioP1;P1;durP2;ratioP2;P2;SDS_P1;SDS_P2;PMS_P1;PMS_P2;Temp;Humidity;BMP_temperature;BMP_pressure;BME280_temperature;BME280_humidity;BME280_pressure;Samples;Min_cycle;Max_cycle;Signal;HPM_P1;HPM_P2
2021/12/22 00:01:40;;;;;;;22.48;7.57;;;-4.20;99.90;;;;;;5156149;27;20490;-56
2021/12/22 00:04:07;;;;;;;18.02;6.63;;;-4.20;99.90;;;;;;5156321;27;20050;-51
2021/12/22 00:06:36;;;;;;;19.58;6.85;;;-4.10;99.90;;;;;;5155675;27;20099;-52
2021/12/22 00:09:05;;;;;;;15.95;6.90;;;-4.10;99.90;;;;;;5155945;27;20046;-50
2021/12/22 00:11:31;;;;;;;17.35;6.60;;;-4.10;99.90;;;;;;5156140;27;20043;-51
2021/12/22 00:13:58;;;;;;;20.98;8.35;;;-4.10;99.90;;;;;;5156064;27;20597;-55
2021/12/22 00:16:25;;;;;;;15.68;7.63;;;-4.20;99.90;;;;;;5155559;27;20073;-53
2021/12/22 00:18:52;;;;;;;19.98;7.13;;;-4.20;99.90;;;;;;5155651;27;20054;-53
2021/12/22 00:21:20;;;;;;;17.83;6.78;;;-4.20;99.90;;;;;;5155878;27;20042;-54
2021/12/22 00:23:47;;;;;;;16.80;6.38;;;-4.10;99.90;;;;;;5155888;27;20051;-51
2021/12/22 00:26:15;;;;;;;20.60;7.35;;;-4.00;99.90;;;;;;5155349;27;20045;-53
2021/12/22 00:28:44;;;;;;;14.68;6.50;;;-4.00;99.90;;;;;;5155692;27;20050;-52
2021/12/22 00:31:13;;;;;;;13.77;6.40;;;-4.00;99.90;;;;;;5155609;27;20038;-52
2021/12/22 00:33:51;;;;;;;15.90;6.70;;;-3.90;99.90;;;;;;5154929;27;20046;-52
2021/12/22 00:36:21;;;;;;;16.33;7.13;;;-4.00;99.90;;;;;;5155178;27;20409;-52
2021/12/22 00:38:50;;;;;;;18.13;7.13;;;-4.00;99.90;;;;;;5155544;27;20067;-50
2021/12/22 00:41:17;;;;;;;14.20;6.47;;;-4.00;99.90;;;;;;5155567;27;20490;-51
2021/12/22 00:43:44;;;;;;;;;;;-4.00;99.90;;;;;;5155825;27;20053;-54
2021/12/22 00:46:12;;;;;;;12.85;5.95;;;-4.10;99.90;;;;;;5154874;27;20335;-52
2021/12/22 00:48:40;;;;;;;14.40;6.03;;;-4.00;99.90;;;;;;5155210;27;20043;-52
2021/12/22 00:51:07;;;;;;;17.10;6.43;;;-4.00;99.90;;;;;;5155305;27;20088;-53
2021/12/22 00:53:34;;;;;;;16.27;6.15;;;-4.10;99.90;;;;;;5155207;27;20041;-51
2021/12/22 00:56:02;;;;;;;;;;;-4.00;99.90;;;;;;5155299;27;20071;-51
2021/12/22 00:58:29;;;;;;;;;;;-4.00;99.90;;;;;;5146307;27;19919;-52
2021/12/22 01:00:56;;;;;;;14.30;5.95;;;-4.00;99.90;;;;;;5136397;27;20468;-54
2021/12/22 01:03:23;;;;;;;13.68;6.60;;;-3.90;99.90;;;;;;5134257;27;20069;-51
2021/12/22 01:05:50;;;;;;;;;;;-4.00;99.90;;;;;;5134321;27;20097;-52
2021/12/22 01:08:18;;;;;;;19.08;6.22;;;-3.90;99.90;;;;;;5134063;27;19920;-53
2021/12/22 01:10:45;;;;;;;;;;;-3.90;99.90;;;;;;5134160;27;20072;-53
2021/12/22 01:13:12;;;;;;;13.40;5.60;;;-3.90;99.90;;;;;;5133916;27;20325;-52
2021/12/22 01:15:40;;;;;;;12.38;5.32;;;-3.90;99.90;;;;;;5133690;27;20108;-51
2021/12/22 01:18:15;;;;;;;11.35;5.30;;;-3.90;99.90;;;;;;5133679;27;20084;-52
2021/12/22 01:23:19;;;;;;;13.68;5.38;;;-3.80;99.90;;;;;;5134111;27;20047;-52
2021/12/22 01:25:48;;;;;;;11.40;5.32;;;-3.80;99.90;;;;;;5133626;27;20151;-50
2021/12/22 01:28:16;;;;;;;10.55;5.07;;;-3.80;99.90;;;;;;5133600;27;20055;-53
2021/12/22 01:30:46;;;;;;;12.15;4.63;;;-3.70;99.90;;;;;;5133657;27;20051;-53
2021/12/22 01:33:15;;;;;;;13.77;5.05;;;-3.70;99.90;;;;;;5133775;27;20046;-54
2021/12/22 01:35:42;;;;;;;12.77;5.43;;;-3.80;99.90;;;;;;5133199;27;20043;-54
2021/12/22 01:38:10;;;;;;;11.15;4.70;;;-3.80;99.90;;;;;;5133674;27;20095;-55
2021/12/22 01:40:41;;;;;;;11.65;5.40;;;-3.90;99.90;;;;;;5133278;27;20047;-53
2021/12/22 01:43:08;;;;;;;13.27;4.80;;;-4.00;99.90;;;;;;5133514;27;20047;-54
2021/12/22 01:51:40;;;;;;;14.60;6.18;;;-3.80;99.90;;;;;;5133395;27;20487;-51
2021/12/22 01:54:24;;;;;;;13.30;6.05;;;-3.70;99.90;;;;;;5133388;27;20043;-53
2021/12/22 01:56:52;;;;;;;12.60;5.55;;;-3.70;99.90;;;;;;5132805;27;20031;-53
2021/12/22 01:59:20;;;;;;;12.77;5.35;;;-3.70;99.90;;;;;;5133220;27;20047;-51
2021/12/22 02:01:48;;;;;;;13.63;5.15;;;-3.70;99.90;;;;;;5133014;27;20407;-51
2021/12/22 02:04:15;;;;;;;11.63;5.30;;;-3.80;99.90;;;;;;5133206;27;20166;-51
2021/12/22 02:06:46;;;;;;;11.25;5.25;;;-3.70;99.90;;;;;;5132572;27;20043;-52
2021/12/22 02:12:03;;;;;;;14.30;5.75;;;-3.70;99.90;;;;;;5132952;27;20042;-52
2021/12/22 02:14:30;;;;;;;13.23;5.85;;;-3.70;99.90;;;;;;5133097;27;20092;-54
2021/12/22 02:16:57;;;;;;;11.38;5.40;;;-3.70;99.90;;;;;;5132335;27;20085;-54
2021/12/22 02:19:24;;;;;;;11.05;5.25;;;-3.80;99.90;;;;;;5132978;27;20047;-53
2021/12/22 02:21:55;;;;;;;15.90;5.68;;;-3.80;99.90;;;;;;5132705;27;20043;-54
2021/12/22 02:24:22;;;;;;;13.77;5.57;;;-3.70;99.90;;;;;;5132782;27;20047;-52
2021/12/22 02:26:57;;;;;;;16.02;5.65;;;-3.70;99.90;;;;;;5132282;27;20039;-53
2021/12/22 02:29:34;;;;;;;14.25;5.82;;;-3.70;99.90;;;;;;5132925;27;20068;-50
2021/12/22 02:32:08;;;;;;;13.02;5.15;;;-3.70;99.90;;;;;;5132820;27;20043;-52
2021/12/22 02:34:42;;;;;;;20.90;6.35;;;-3.60;99.90;;;;;;5132636;27;20047;-54
2021/12/22 02:37:13;;;;;;;17.80;6.45;;;-3.60;99.90;;;;;;5132228;27;20051;-51
2021/12/22 02:39:57;;;;;;;19.63;7.05;;;-3.60;99.90;;;;;;5132720;27;20543;-54
2021/12/22 02:42:33;;;;;;;17.40;6.60;;;-3.50;99.90;;;;;;5132691;27;20035;-52
2021/12/22 02:45:17;;;;;;;15.40;6.30;;;-3.50;99.90;;;;;;5132631;27;20100;-54
2021/12/22 02:47:45;;;;;;;13.95;6.07;;;-3.50;99.90;;;;;;5132216;27;20118;-53
2021/12/22 02:50:14;;;;;;;15.93;7.15;;;-3.50;99.90;;;;;;5132576;28;20100;-53
2021/12/22 02:55:30;;;;;;;14.60;6.05;;;-3.50;99.90;;;;;;5132153;28;20097;-52
2021/12/22 02:58:02;;;;;;;16.40;6.57;;;-3.50;99.90;;;;;;5134278;27;20051;-51
2021/12/22 03:00:47;;;;;;;14.95;5.68;;;-3.50;99.90;;;;;;5136621;27;20039;-51
2021/12/22 03:06:05;;;;;;;12.45;5.95;;;-3.60;99.90;;;;;;5136271;27;20047;-51
2021/12/22 03:08:31;;;;;;;17.73;6.78;;;-3.50;99.90;;;;;;5136524;27;20077;-52
2021/12/22 03:10:58;;;;;;;22.45;8.50;;;-3.50;99.90;;;;;;5136561;27;20039;-54
2021/12/22 03:13:25;;;;;;;20.58;8.93;;;-3.50;99.90;;;;;;5136349;27;20540;-50
2021/12/22 03:15:52;;;;;;;16.67;7.75;;;-3.40;99.90;;;;;;5136118;27;20043;-52
2021/12/22 03:18:19;;;;;;;17.33;6.97;;;-3.40;99.90;;;;;;5136316;27;20130;-51
2021/12/22 03:20:53;;;;;;;21.23;7.80;;;-3.50;99.90;;;;;;5136326;27;20047;-53
2021/12/22 03:23:21;;;;;;;23.15;7.85;;;-3.40;99.90;;;;;;5136566;27;20071;-50
2021/12/22 03:25:48;;;;;;;18.50;8.65;;;-3.50;99.90;;;;;;5136046;27;20384;-54
2021/12/22 03:28:14;;;;;;;23.13;8.32;;;-3.40;99.90;;;;;;5135987;27;20043;-50
2021/12/22 03:30:41;;;;;;;29.52;12.02;;;-3.40;99.90;;;;;;5136147;27;20039;-51
2021/12/22 03:33:08;;;;;;;23.17;10.48;;;-3.50;99.90;;;;;;5136059;27;20041;-52
2021/12/22 03:35:38;;;;;;;21.98;9.20;;;-3.40;99.90;;;;;;5135636;27;20074;-51
2021/12/22 03:38:05;;;;;;;18.13;7.75;;;-3.30;99.90;;;;;;5136067;27;20051;-52
2021/12/22 03:40:32;;;;;;;28.05;12.25;;;-3.30;99.90;;;;;;5135656;27;20053;-50
2021/12/22 03:42:59;;;;;;;21.90;9.38;;;-3.30;99.90;;;;;;5136075;27;20100;-50
2021/12/22 03:45:26;;;;;;;;;;;-3.30;99.90;;;;;;5135891;27;20088;-51
2021/12/22 03:47:53;;;;;;;16.38;7.95;;;-3.30;99.90;;;;;;5135668;27;20031;-51
2021/12/22 03:50:20;;;;;;;24.65;9.32;;;-3.20;99.90;;;;;;5135612;27;20070;-52
2021/12/22 03:52:49;;;;;;;22.83;9.88;;;-3.20;99.90;;;;;;5135838;27;20043;-52
2021/12/22 03:55:16;;;;;;;23.02;9.93;;;-3.20;99.90;;;;;;5135308;27;20039;-50
2021/12/22 03:57:43;;;;;;;24.20;8.38;;;-3.20;99.90;;;;;;5135594;27;20292;-53
2021/12/22 04:00:12;;;;;;;23.42;8.18;;;-3.20;99.90;;;;;;5135503;27;20039;-51
2021/12/22 04:02:39;;;;;;;16.65;7.18;;;-3.10;99.90;;;;;;5135491;27;20043;-53
2021/12/22 04:05:07;;;;;;;19.27;7.55;;;-3.10;99.90;;;;;;5135545;27;20043;-55
2021/12/22 04:07:34;;;;;;;17.60;8.02;;;-3.20;99.90;;;;;;5135122;27;20099;-53
2021/12/22 04:10:10;;;;;;;19.42;8.68;;;-3.20;99.90;;;;;;5135345;27;20067;-51
2021/12/22 04:12:37;;;;;;;22.67;9.45;;;-3.20;99.90;;;;;;5135163;27;20043;-52
2021/12/22 04:15:04;;;;;;;26.92;10.77;;;-3.20;99.90;;;;;;5135313;27;20039;-54
2021/12/22 04:17:31;;;;;;;24.90;9.68;;;-3.20;99.90;;;;;;5134878;27;20043;-54
2021/12/22 04:19:57;;;;;;;23.95;9.05;;;-3.20;99.90;;;;;;5135586;27;20051;-52
2021/12/22 04:22:24;;;;;;;23.08;9.68;;;-3.10;99.90;;;;;;5135209;27;20040;-52
2021/12/22 04:24:51;;;;;;;28.23;10.40;;;-3.10;99.90;;;;;;5134995;27;20448;-52
2021/12/22 04:27:18;;;;;;;22.00;8.77;;;-3.10;99.90;;;;;;5134741;27;20050;-54
2021/12/22 04:29:45;;;;;;;24.02;9.35;;;-3.10;99.90;;;;;;5135292;27;20474;-53
2021/12/22 04:32:12;;;;;;;15.35;7.88;;;-3.10;99.90;;;;;;5135024;27;20073;-52
2021/12/22 04:34:39;;;;;;;18.05;7.65;;;-3.20;99.90;;;;;;5134860;27;20556;-53
2021/12/22 04:37:05;;;;;;;13.85;5.35;;;-3.30;99.90;;;;;;5134537;27;20047;-52
2021/12/22 04:39:33;;;;;;;17.77;7.45;;;-3.50;99.90;;;;;;5134993;27;20043;-53
2021/12/22 04:42:01;;;;;;;18.83;7.47;;;-3.50;99.90;;;;;;5134700;27;20517;-52
2021/12/22 04:44:27;;;;;;;19.42;7.35;;;-3.50;99.90;;;;;;5134611;27;20055;-52
2021/12/22 04:46:54;;;;;;;15.45;6.90;;;-3.50;99.90;;;;;;5134217;27;20042;-53
2021/12/22 04:49:21;;;;;;;17.52;7.57;;;-3.40;99.90;;;;;;5134669;27;20101;-51
2021/12/22 04:51:51;;;;;;;18.13;7.55;;;-3.50;99.90;;;;;;5134681;27;20392;-52
2021/12/22 04:56:55;;;;;;;17.27;6.60;;;-3.50;99.90;;;;;;5133883;27;20108;-54
2021/12/22 04:59:22;;;;;;;19.98;8.27;;;-3.50;99.90;;;;;;5134420;27;20529;-53
2021/12/22 05:01:49;;;;;;;;;;;-3.40;99.90;;;;;;5135173;27;20406;-53
2021/12/22 05:04:17;;;;;;;17.02;7.43;;;-3.40;99.90;;;;;;5134144;27;19927;-53
2021/12/22 05:06:44;;;;;;;16.95;7.95;;;-3.40;99.90;;;;;;5133830;27;20115;-52
2021/12/22 05:09:10;;;;;;;19.58;8.43;;;-3.50;99.90;;;;;;5134102;27;20039;-51
2021/12/22 05:11:37;;;;;;;16.08;6.47;;;-3.60;99.90;;;;;;5134321;27;20436;-53
2021/12/22 05:14:05;;;;;;;24.83;9.82;;;-3.60;99.90;;;;;;5134101;27;20035;-51
2021/12/22 05:16:33;;;;;;;19.40;7.95;;;-3.70;99.90;;;;;;5133803;27;20051;-50
2021/12/22 05:19:12;;;;;;;17.00;7.50;;;-3.80;99.90;;;;;;5131910;22;20043;-53
2021/12/22 05:22:18;;;;;;;20.60;8.23;;;-3.90;99.90;;;;;;5112620;28;20043;-56
2021/12/22 05:24:45;;;;;;;18.30;8.75;;;-3.80;99.90;;;;;;5108137;27;20422;-54
2021/12/22 05:27:13;;;;;;;18.58;8.23;;;-3.70;99.90;;;;;;5094869;28;20044;-52
2021/12/22 05:29:40;;;;;;;14.63;6.38;;;-3.60;99.90;;;;;;5092873;28;20230;-54
2021/12/22 05:32:07;;;;;;;18.17;7.95;;;-3.80;99.90;;;;;;5108856;28;20081;-51
2021/12/22 05:34:34;;;;;;;21.77;8.07;;;-4.00;99.90;;;;;;5113007;28;20047;-52
2021/12/22 05:37:01;;;;;;;19.02;8.27;;;-3.90;99.90;;;;;;5112207;28;20052;-54
2021/12/22 05:39:28;;;;;;;16.23;7.60;;;-3.90;99.90;;;;;;5112701;28;20520;-52
2021/12/22 05:41:55;;;;;;;27.38;7.53;;;-3.80;99.90;;;;;;5112096;28;20122;-51
2021/12/22 05:44:22;;;;;;;;;;;-3.80;99.90;;;;;;5112498;28;20048;-54
2021/12/22 05:46:49;;;;;;;19.83;8.80;;;-3.70;99.90;;;;;;5112071;28;19920;-52
2021/12/22 05:49:16;;;;;;;24.38;10.20;;;-3.60;99.90;;;;;;5111697;28;20564;-52
2021/12/22 05:51:43;;;;;;;21.17;8.52;;;-3.60;99.90;;;;;;5112400;28;20047;-50
2021/12/22 05:54:10;;;;;;;21.83;8.65;;;-3.70;99.90;;;;;;5112339;28;20523;-52
2021/12/22 05:56:37;;;;;;;21.80;8.32;;;-3.80;99.90;;;;;;5112127;28;20043;-54
2021/12/22 05:59:04;;;;;;;19.80;7.50;;;-3.90;99.90;;;;;;5112477;28;20040;-53
2021/12/22 06:01:30;;;;;;;21.20;7.88;;;-3.80;99.90;;;;;;5112629;28;20100;-54
2021/12/22 06:04:03;;;;;;;22.15;8.55;;;-3.80;99.90;;;;;;5112153;28;20035;-51
2021/12/22 06:06:30;;;;;;;21.48;8.15;;;-3.90;99.90;;;;;;5112169;28;20080;-51
2021/12/22 06:09:04;;;;;;;24.15;8.43;;;-3.90;99.90;;;;;;5111737;28;20429;-52
2021/12/22 06:11:31;;;;;;;22.55;7.95;;;-3.90;99.90;;;;;;5112058;28;20494;-53
2021/12/22 06:13:58;;;;;;;;;;;-3.90;99.90;;;;;;5112591;28;20086;-51
2021/12/22 06:16:25;;;;;;;23.65;8.70;;;-3.80;99.90;;;;;;5111366;28;19939;-52
2021/12/22 06:18:57;;;;;;;20.52;7.78;;;-3.90;99.90;;;;;;5112179;28;20139;-51
2021/12/22 06:21:24;;;;;;;19.90;8.10;;;-3.90;99.90;;;;;;5112444;28;20134;-51
2021/12/22 06:23:51;;;;;;;26.55;9.23;;;-4.00;99.90;;;;;;5111636;28;20071;-55
2021/12/22 06:26:18;;;;;;;31.70;10.57;;;-4.00;99.90;;;;;;5111514;28;20055;-52
2021/12/22 06:28:45;;;;;;;21.25;8.65;;;-3.90;99.90;;;;;;5111745;28;20105;-52
2021/12/22 06:31:12;;;;;;;23.42;8.80;;;-3.90;99.90;;;;;;5093447;28;20423;-53
2021/12/22 06:33:39;;;;;;;25.10;8.82;;;-4.10;99.90;;;;;;5111482;28;20039;-54
2021/12/22 06:36:06;;;;;;;25.88;9.23;;;-4.00;99.90;;;;;;5111478;28;20393;-51
2021/12/22 06:38:33;;;;;;;21.38;9.30;;;-3.90;99.90;;;;;;5111708;28;20051;-51
2021/12/22 06:41:00;;;;;;;20.63;9.07;;;-3.90;99.90;;;;;;5112137;28;20043;-51
2021/12/22 06:43:27;;;;;;;21.55;8.95;;;-3.90;99.90;;;;;;5112100;28;20145;-50
2021/12/22 06:45:54;;;;;;;29.10;10.77;;;-3.80;99.90;;;;;;5111593;28;20142;-51
2021/12/22 06:48:21;;;;;;;27.10;10.80;;;-3.80;99.90;;;;;;5111876;28;20044;-52
2021/12/22 06:50:47;;;;;;;29.55;11.25;;;-3.70;99.90;;;;;;5111909;28;20040;-53
2021/12/22 06:53:15;;;;;;;26.02;10.00;;;-3.70;99.90;;;;;;5111850;28;20450;-52
2021/12/22 06:55:41;;;;;;;;;;;-3.70;99.90;;;;;;5112000;28;20050;-51
2021/12/22 06:58:08;;;;;;;31.52;9.57;;;-3.60;99.90;;;;;;5111698;28;19920;-53
2021/12/22 07:00:36;;;;;;;24.65;10.38;;;-3.70;99.90;;;;;;5111985;28;20075;-51
2021/12/22 07:03:05;;;;;;;28.00;10.90;;;-3.70;99.90;;;;;;5111838;28;20561;-52
2021/12/22 07:05:32;;;;;;;30.38;12.32;;;-3.70;99.90;;;;;;5111626;28;20058;-51
2021/12/22 07:07:59;;;;;;;;;;;-3.70;99.90;;;;;;5112337;28;20093;-51
2021/12/22 07:10:26;;;;;;;36.30;13.80;;;-3.70;99.90;;;;;;5111700;28;19920;-50
2021/12/22 07:12:53;;;;;;;;;;;-3.70;99.90;;;;;;5111670;28;20036;-52
2021/12/22 07:15:20;;;;;;;31.02;13.30;;;-3.70;99.90;;;;;;5111397;28;19964;-51
2021/12/22 07:17:49;;;;;;;31.67;12.93;;;-3.70;99.90;;;;;;5110954;28;20108;-52
2021/12/22 07:20:16;;;;;;;24.98;10.13;;;-3.70;99.90;;;;;;5111258;28;20050;-52
2021/12/22 07:22:43;;;;;;;36.70;12.90;;;-3.80;99.90;;;;;;5111601;28;20043;-51
2021/12/22 07:25:12;;;;;;;27.80;12.15;;;-3.80;99.90;;;;;;5111494;28;20407;-55
2021/12/22 07:27:39;;;;;;;27.25;11.48;;;-3.70;99.90;;;;;;5111563;28;20050;-51
2021/12/22 07:30:07;;;;;;;37.28;15.25;;;-3.70;99.90;;;;;;5111616;28;20476;-52
2021/12/22 07:32:34;;;;;;;35.58;12.57;;;-3.80;99.90;;;;;;5111365;28;20035;-53
2021/12/22 07:35:19;;;;;;;32.55;13.13;;;-3.70;99.90;;;;;;5111197;28;20040;-54
2021/12/22 07:38:06;;;;;;;29.38;11.88;;;-3.60;99.90;;;;;;5111485;28;20036;-52
2021/12/22 07:40:32;;;;;;;37.45;12.65;;;-3.50;99.90;;;;;;5111479;28;20446;-50
2021/12/22 07:42:59;;;;;;;34.03;12.68;;;-3.60;99.90;;;;;;5111639;28;20479;-51
2021/12/22 07:45:26;;;;;;;30.88;13.00;;;-3.60;99.90;;;;;;5114686;28;20040;-54
2021/12/22 07:47:53;;;;;;;39.08;13.95;;;-3.60;99.90;;;;;;5115267;28;20074;-52
2021/12/22 07:50:20;;;;;;;33.53;14.10;;;-3.60;99.90;;;;;;5115227;28;20044;-51
2021/12/22 07:52:47;;;;;;;;;;;-3.60;99.90;;;;;;5115604;28;20067;-52
2021/12/22 07:55:14;;;;;;;37.10;13.63;;;-3.70;99.90;;;;;;5114479;28;19923;-52
2021/12/22 07:57:41;;;;;;;36.45;14.05;;;-3.60;99.90;;;;;;5114982;28;20078;-50
2021/12/22 08:00:08;;;;;;;27.95;12.30;;;-3.60;99.90;;;;;;5096980;28;20036;-51
2021/12/22 08:02:39;;;;;;;31.50;13.05;;;-3.60;99.90;;;;;;5115005;28;20050;-55
2021/12/22 08:05:09;;;;;;;37.42;14.20;;;-3.50;99.90;;;;;;5115091;28;20071;-51
2021/12/22 08:07:36;;;;;;;41.42;13.73;;;-3.40;99.90;;;;;;5114559;28;20533;-53
2021/12/22 08:10:07;;;;;;;34.85;12.60;;;-3.40;99.90;;;;;;5114460;28;20453;-52
2021/12/22 08:12:34;;;;;;;38.95;14.48;;;-3.30;99.90;;;;;;5115008;28;20119;-51
2021/12/22 08:15:01;;;;;;;36.75;14.63;;;-3.30;99.90;;;;;;5114703;28;20035;-50
2021/12/22 08:17:30;;;;;;;37.35;14.68;;;-3.30;99.90;;;;;;5114156;28;20042;-51
2021/12/22 08:19:57;;;;;;;40.22;14.60;;;-3.20;99.90;;;;;;5114669;28;20048;-50
2021/12/22 08:22:25;;;;;;;35.85;14.27;;;-3.20;99.90;;;;;;5114521;28;20495;-51
2021/12/22 08:24:51;;;;;;;;;;;-3.20;99.90;;;;;;5114709;28;20266;-52
2021/12/22 08:27:21;;;;;;;36.63;14.23;;;-3.10;99.90;;;;;;5114086;28;20291;-52
2021/12/22 08:29:49;;;;;;;39.08;14.93;;;-3.10;99.90;;;;;;5114519;28;20118;-50
2021/12/22 08:32:17;;;;;;;35.03;14.55;;;-3.00;99.90;;;;;;5114564;28;20449;-51
2021/12/22 08:34:46;;;;;;;35.75;15.35;;;-2.90;99.90;;;;;;5114097;28;20044;-51
2021/12/22 08:39:59;;;;;;;37.60;15.02;;;-2.90;99.90;;;;;;5114416;28;20108;-52
2021/12/22 08:42:27;;;;;;;;;;;-2.90;99.90;;;;;;5114758;28;20039;-52
2021/12/22 08:44:54;;;;;;;38.45;15.05;;;-3.00;99.90;;;;;;5113879;28;19927;-55
2021/12/22 08:47:21;;;;;;;35.25;14.55;;;-3.00;99.90;;;;;;5113637;28;20097;-51
2021/12/22 08:49:48;;;;;;;34.53;12.77;;;-3.00;99.90;;;;;;5113850;28;20038;-50
2021/12/22 08:52:15;;;;;;;31.58;14.10;;;-2.90;99.90;;;;;;5113884;28;20047;-51
2021/12/22 08:54:42;;;;;;;36.50;14.23;;;-3.00;99.90;;;;;;5113289;28;20028;-50
2021/12/22 08:57:09;;;;;;;;;;;-2.90;99.90;;;;;;5113931;28;20039;-50
2021/12/22 08:59:36;;;;;;;34.03;14.00;;;-2.80;99.90;;;;;;5113775;28;19919;-51
2021/12/22 09:02:03;;;;;;;38.40;16.00;;;-2.80;99.90;;;;;;5113725;28;20040;-55
2021/12/22 09:04:30;;;;;;;38.53;14.07;;;-2.60;99.90;;;;;;5113893;28;20658;-51
2021/12/22 09:06:57;;;;;;;35.20;15.05;;;-2.70;99.90;;;;;;5113215;28;20050;-51
2021/12/22 09:09:24;;;;;;;39.38;15.77;;;-2.80;99.90;;;;;;5113630;28;20462;-51
2021/12/22 09:11:51;;;;;;;29.27;13.35;;;-2.70;99.90;;;;;;5113713;28;20128;-52
2021/12/22 09:14:20;;;;;;;32.25;13.27;;;-2.60;99.90;;;;;;5113467;28;20035;-50
2021/12/22 09:16:48;;;;;;;26.67;11.88;;;-2.50;99.90;;;;;;5113042;28;20127;-50
2021/12/22 09:19:15;;;;;;;30.98;12.52;;;-2.60;99.90;;;;;;5113184;28;20096;-53
2021/12/22 09:21:43;;;;;;;29.55;12.82;;;-2.50;99.90;;;;;;5113529;28;20066;-51
2021/12/22 09:24:10;;;;;;;23.73;10.95;;;-2.60;99.90;;;;;;5113451;28;20077;-52
2021/12/22 09:26:37;;;;;;;;;;;-2.40;99.90;;;;;;5113331;28;20074;-54
2021/12/22 09:29:05;;;;;;;31.88;12.60;;;-2.40;99.90;;;;;;5113305;28;19993;-50
2021/12/22 09:31:32;;;;;;;36.47;14.40;;;-2.20;99.90;;;;;;5113263;28;20105;-53
2021/12/22 09:33:59;;;;;;;30.77;13.98;;;-2.30;99.90;;;;;;5112985;28;20100;-51
2021/12/22 09:36:26;;;;;;;32.13;14.13;;;-2.40;99.90;;;;;;5112705;28;20484;-52
2021/12/22 09:38:53;;;;;;;34.50;13.32;;;-2.20;99.90;;;;;;5113054;28;20043;-51
2021/12/22 09:41:20;;;;;;;35.17;13.77;;;-2.10;99.90;;;;;;5113105;28;20099;-51
2021/12/22 09:43:47;;;;;;;35.33;13.70;;;-2.00;99.90;;;;;;5112975;28;20073;-52
2021/12/22 09:46:18;;;;;;;28.55;13.32;;;-2.00;99.90;;;;;;5112622;28;20051;-54
2021/12/22 09:53:51;;;;;;;30.35;13.13;;;-2.00;99.90;;;;;;5113129;28;20047;-53
2021/12/22 09:56:24;;;;;;;30.30;12.98;;;-1.90;99.90;;;;;;5112331;28;20044;-50
2021/12/22 09:58:52;;;;;;;32.58;14.20;;;-1.80;99.90;;;;;;5112874;28;20039;-51
2021/12/22 10:01:23;;;;;;;29.52;12.82;;;-1.90;99.90;;;;;;5112413;28;20097;-51
2021/12/22 10:03:51;;;;;;;37.00;13.43;;;-2.00;99.90;;;;;;5112808;28;20062;-51
2021/12/22 10:06:18;;;;;;;34.17;13.40;;;-2.10;99.90;;;;;;5112065;28;20108;-54
2021/12/22 10:09:00;;;;;;;42.90;14.35;;;-2.10;99.90;;;;;;5112241;28;20036;-51
2021/12/22 10:11:31;;;;;;;38.65;13.45;;;-2.20;99.90;;;;;;5112608;28;20329;-52
2021/12/22 10:13:58;;;;;;;32.95;13.07;;;-2.20;99.90;;;;;;5112313;28;20043;-52
2021/12/22 10:16:26;;;;;;;;;;;-2.00;99.90;;;;;;5112400;28;20069;-52
2021/12/22 10:19:08;;;;;;;36.88;13.23;;;-2.00;99.90;;;;;;5112401;28;19924;-50
2021/12/22 10:21:49;;;;;;;28.02;11.63;;;-2.00;99.90;;;;;;5112253;28;20043;-52
2021/12/22 10:24:15;;;;;;;30.33;13.98;;;-1.90;99.90;;;;;;5112321;28;20051;-53
2021/12/22 10:26:42;;;;;;;30.20;13.27;;;-1.80;99.90;;;;;;5111775;28;20043;-52
2021/12/22 10:29:09;;;;;;;25.02;11.73;;;-1.60;99.90;;;;;;5112164;28;20480;-54
2021/12/22 10:31:37;;;;;;;28.67;11.85;;;-1.70;99.90;;;;;;5112163;28;20039;-52
2021/12/22 10:34:10;;;;;;;25.77;12.00;;;-1.80;99.90;;;;;;5112114;28;20043;-50
2021/12/22 10:36:53;;;;;;;29.77;12.18;;;-1.90;99.90;;;;;;5111763;28;20044;-51
2021/12/22 10:39:27;;;;;;;35.58;12.52;;;-1.80;99.90;;;;;;5112153;28;20043;-51
2021/12/22 10:42:09;;;;;;;30.00;12.25;;;-1.90;99.90;;;;;;5112053;28;20047;-53
2021/12/22 10:44:39;;;;;;;26.40;11.45;;;-1.80;99.90;;;;;;5112243;28;20075;-55
2021/12/22 10:47:34;;;;;;;26.33;11.93;;;-1.90;99.90;;;;;;5111388;28;20491;-51
2021/12/22 10:50:07;;;;;;;26.48;11.02;;;-1.90;99.90;;;;;;5111945;28;20467;-51
2021/12/22 10:52:34;;;;;;;29.95;11.95;;;-1.80;99.90;;;;;;5111807;28;20397;-51
2021/12/22 10:55:10;;;;;;;31.35;12.43;;;-1.80;99.90;;;;;;5111921;28;20058;-51
2021/12/22 10:57:42;;;;;;;28.92;11.00;;;-1.70;99.90;;;;;;5111776;28;20046;-50
2021/12/22 11:00:22;;;;;;;26.90;11.63;;;-1.70;99.90;;;;;;5111723;28;20043;-52
2021/12/22 11:03:10;;;;;;;32.17;12.55;;;-1.60;99.90;;;;;;5111824;28;20047;-52
2021/12/22 11:05:45;;;;;;;29.30;12.05;;;-1.70;99.90;;;;;;5111394;28;20050;-51
2021/12/22 11:08:24;;;;;;;28.80;12.73;;;-1.70;99.90;;;;;;5111656;28;20588;-50
2021/12/22 11:10:52;;;;;;;34.28;12.25;;;-1.70;99.90;;;;;;5111775;28;20054;-52
2021/12/22 11:13:23;;;;;;;27.35;12.73;;;-1.50;99.90;;;;;;5111592;28;20437;-52
2021/12/22 11:15:51;;;;;;;26.60;11.25;;;-1.50;99.90;;;;;;5111076;28;20046;-52
2021/12/22 11:18:33;;;;;;;31.50;11.95;;;-1.50;99.90;;;;;;5126928;22;20131;-55
2021/12/22 11:21:31;;;;;;;25.70;11.75;;;-1.50;99.90;;;;;;5115312;28;20039;-52
2021/12/22 11:23:59;;;;;;;20.58;8.80;;;-1.40;99.90;;;;;;5115350;28;20117;-52
2021/12/22 11:26:25;;;;;;;;;;;-1.30;99.90;;;;;;5115927;28;20139;-51
2021/12/22 11:28:55;;;;;;;27.20;11.60;;;-1.30;99.90;;;;;;5102752;28;19931;-52
2021/12/22 11:31:22;;;;;;;35.08;12.38;;;-1.30;99.90;;;;;;5089388;28;20093;-52
2021/12/22 11:33:49;;;;;;;28.33;11.70;;;-1.30;99.90;;;;;;5077911;28;20054;-52
2021/12/22 11:36:16;;;;;;;25.13;12.00;;;-1.10;99.90;;;;;;5074224;28;20554;-51
2021/12/22 11:38:43;;;;;;;27.50;12.35;;;-1.10;99.90;;;;;;5074729;28;20047;-52
2021/12/22 11:41:14;;;;;;;23.83;11.18;;;-1.00;99.90;;;;;;5077130;28;20763;-51
2021/12/22 11:43:43;;;;;;;33.35;12.90;;;-1.00;99.90;;;;;;5076203;28;20105;-54
2021/12/22 11:46:10;;;;;;;33.55;11.55;;;-0.90;99.90;;;;;;5094165;28;20097;-56
2021/12/22 11:48:38;;;;;;;26.75;11.75;;;-0.90;99.90;;;;;;5094384;28;20093;-52
2021/12/22 11:51:41;;;;;;;22.25;11.50;;;-0.80;99.90;;;;;;5093966;28;20446;-54
2021/12/22 11:54:09;;;;;;;38.63;11.20;;;-0.80;99.90;;;;;;4972508;28;20042;-51
2021/12/22 11:56:36;;;;;;;19.98;10.38;;;-0.80;99.90;;;;;;5064616;28;20450;-53
2021/12/22 11:59:04;;;;;;;18.55;8.45;;;-0.90;99.90;;;;;;5092584;28;20503;-54
2021/12/22 12:01:31;;;;;;;18.73;9.85;;;-0.80;99.90;;;;;;5093729;28;20048;-51
2021/12/22 12:04:12;;;;;;;23.48;9.52;;;-0.70;99.90;;;;;;5093812;28;20075;-53
2021/12/22 12:06:50;;;;;;;22.92;10.70;;;-0.70;99.90;;;;;;5093225;28;20044;-51
2021/12/22 12:09:22;;;;;;;23.08;10.73;;;-0.70;99.90;;;;;;5091204;28;20044;-52
2021/12/22 12:11:56;;;;;;;21.63;9.57;;;-0.70;99.90;;;;;;5090658;28;20040;-54
2021/12/22 12:15:01;;;;;;;23.17;9.55;;;-0.70;99.90;;;;;;5093917;28;20046;-51
2021/12/22 12:23:28;;;;;;;22.83;8.85;;;-0.60;99.90;;;;;;5093071;28;20406;-51
2021/12/22 12:25:56;;;;;;;25.42;9.57;;;-0.60;99.90;;;;;;5093872;28;20040;-51
2021/12/22 12:28:27;;;;;;;19.40;8.63;;;-0.50;99.90;;;;;;5094129;28;20516;-54
2021/12/22 12:30:57;;;;;;;23.80;8.52;;;-0.50;99.90;;;;;;5092451;28;20046;-51
2021/12/22 12:33:29;;;;;;;19.88;9.02;;;-0.40;99.90;;;;;;5093985;28;20089;-53
2021/12/22 12:36:06;;;;;;;21.33;8.55;;;-0.40;99.90;;;;;;5093965;28;20454;-51
2021/12/22 12:38:45;;;;;;;18.33;6.43;;;-0.40;99.90;;;;;;5093043;28;20504;-54
2021/12/22 12:41:29;;;;;;;18.83;8.38;;;-0.50;99.90;;;;;;5092268;28;20074;-54
2021/12/22 12:44:02;;;;;;;22.95;9.20;;;-0.40;99.90;;;;;;5092933;28;20514;-52
2021/12/22 12:46:40;;;;;;;18.85;8.52;;;-0.30;99.90;;;;;;5092448;28;20131;-54
2021/12/22 12:49:13;;;;;;;20.02;9.80;;;-0.30;99.90;;;;;;5092640;28;20044;-55
2021/12/22 12:51:44;;;;;;;19.95;8.95;;;-0.30;99.90;;;;;;5092886;28;20040;-51
2021/12/22 12:54:17;;;;;;;21.52;10.48;;;-0.20;99.90;;;;;;5091837;28;20093;-53
2021/12/22 12:56:49;;;;;;;18.33;9.00;;;-0.10;99.90;;;;;;5084652;28;20068;-51
2021/12/22 12:59:26;;;;;;;23.17;9.38;;;-0.10;99.90;;;;;;5073288;28;20467;-52
2021/12/22 13:01:59;;;;;;;17.48;8.70;;;-0.10;99.90;;;;;;5092635;28;20059;-53
2021/12/22 13:04:29;;;;;;;17.98;8.85;;;-0.10;99.90;;;;;;5082778;28;20043;-53
2021/12/22 13:07:09;;;;;;;22.67;9.20;;;-0.10;99.90;;;;;;5085129;28;20076;-52
2021/12/22 13:09:39;;;;;;;19.80;8.88;;;-0.10;99.90;;;;;;5084455;28;20051;-53
2021/12/22 13:18:26;;;;;;;18.80;8.77;;;-0.10;99.90;;;;;;5091084;28;20130;-52
2021/12/22 13:20:56;;;;;;;17.48;7.78;;;0.00;99.90;;;;;;5092337;28;20094;-53
2021/12/22 13:23:26;;;;;;;25.92;10.52;;;0.00;99.90;;;;;;5092486;28;20055;-51
2021/12/22 13:25:54;;;;;;;24.27;9.27;;;0.00;99.90;;;;;;5073861;28;20036;-52
2021/12/22 13:28:25;;;;;;;;;;;0.00;99.90;;;;;;5092681;28;20035;-51
2021/12/22 13:30:57;;;;;;;24.98;8.85;;;0.00;99.90;;;;;;5091952;28;19924;-54